Time;durP1;ratioP1;P1;durP2;ratioP2;P2;SDS_P1;SDS_P2;PMS_P1;PMS_P2;Temp;Humidity;BMP_temperature;BMP_pressure;BME280_temperature;BME280_humidity;BME280_pressure;Samples;Min_cycle;Max_cycle;Signal;HPM_P1;HPM_P2
2024/01/03 00:01:29;;;;;;;18.30;8.60;;;;;;;5.64;87.95;98238.83;131184;1273;106642;-80
2024/01/03 00:04:35;;;;;;;14.40;8.10;;;;;;;5.63;87.90;98240.35;131228;1257;108646;-79
2024/01/03 00:07:41;;;;;;;18.40;8.40;;;;;;;5.60;87.94;98238.25;131242;1256;107081;-82
2024/01/03 00:10:50;;;;;;;16.30;7.90;;;;;;;5.60;87.91;98229.28;131195;1265;106164;-80
2024/01/03 00:14:32;;;;;;;34.90;14.80;;;;;;;5.59;88.06;98223.34;131153;1256;108748;-78
2024/01/03 00:17:38;;;;;;;30.00;12.80;;;;;;;5.63;88.20;98213.77;130995;1252;106467;-79
2024/01/03 00:20:45;;;;;;;16.90;8.70;;;;;;;5.66;87.90;98207.60;131014;1257;106207;-80
2024/01/03 00:23:53;;;;;;;33.50;13.80;;;;;;;5.68;88.00;98201.39;131204;1265;109710;-79
2024/01/03 00:26:59;;;;;;;18.00;9.50;;;;;;;5.68;88.08;98199.02;131175;1257;108223;-80
2024/01/03 00:30:08;;;;;;;53.30;19.10;;;;;;;5.66;88.04;98188.45;131225;1257;106708;-81
2024/01/03 00:33:14;;;;;;;19.90;9.40;;;;;;;5.61;88.01;98188.73;130951;1256;106414;-78
2024/01/03 00:36:19;;;;;;;24.20;10.90;;;;;;;5.55;88.39;98185.89;131286;1257;107435;-80
2024/01/03 00:39:28;;;;;;;17.80;8.40;;;;;;;5.56;88.38;98185.75;130907;1256;108590;-80
2024/01/03 00:42:33;;;;;;;17.40;9.80;;;;;;;5.59;88.12;98183.68;131232;1257;108664;-79
2024/01/03 00:45:41;;;;;;;16.60;9.90;;;;;;;5.62;88.33;98177.85;131173;1258;107463;-78
2024/01/03 00:48:46;;;;;;;12.90;7.70;;;;;;;5.63;88.14;98176.11;131240;1256;107088;-79
2024/01/03 00:51:52;;;;;;;28.10;15.90;;;;;;;5.63;88.29;98169.15;131025;1256;106566;-78
2024/01/03 00:54:58;;;;;;;19.70;11.50;;;;;;;5.63;87.87;98162.92;130999;1256;106537;-78
2024/01/03 00:58:04;;;;;;;15.90;8.60;;;;;;;5.60;88.11;98156.89;130980;1256;107602;-81
2024/01/03 01:01:11;;;;;;;20.30;10.80;;;;;;;5.57;88.36;98151.49;131044;1264;106960;-80
2024/01/03 01:04:17;;;;;;;21.90;10.60;;;;;;;5.57;88.31;98148.11;130936;1267;108295;-80
2024/01/03 01:07:23;;;;;;;18.40;9.50;;;;;;;5.57;88.45;98140.57;130914;1260;107484;-80
2024/01/03 01:10:29;;;;;;;12.50;7.80;;;;;;;5.59;88.45;98138.05;130839;1254;108534;-79
2024/01/03 01:13:34;;;;;;;23.60;14.90;;;;;;;5.60;88.25;98125.94;130906;1257;106356;-81
2024/01/03 01:16:40;;;;;;;18.10;10.30;;;;;;;5.59;88.52;98128.05;130817;1256;107572;-80
2024/01/03 01:19:46;;;;;;;13.90;8.90;;;;;;;5.60;88.35;98119.19;131208;1254;106930;-79
2024/01/03 01:22:51;;;;;;;12.70;7.30;;;;;;;5.58;88.25;98114.45;130884;1257;108061;-78
2024/01/03 01:25:57;;;;;;;11.40;6.80;;;;;;;5.57;88.27;98105.26;130888;1258;107709;-79
2024/01/03 01:29:02;;;;;;;12.40;7.50;;;;;;;5.56;88.46;98102.22;130866;1256;106608;-79
2024/01/03 01:32:08;;;;;;;11.70;7.20;;;;;;;5.56;88.53;98096.59;130832;1257;108398;-78
2024/01/03 01:35:14;;;;;;;11.80;8.00;;;;;;;5.55;88.32;98094.06;131169;1254;108620;-80
2024/01/03 01:38:20;;;;;;;12.00;8.60;;;;;;;5.54;88.35;98090.63;130886;1259;106365;-81
2024/01/03 01:41:25;;;;;;;13.50;8.50;;;;;;;5.54;88.51;98090.23;131178;1256;106024;-80
2024/01/03 01:44:31;;;;;;;12.90;8.20;;;;;;;5.54;88.49;98085.50;130893;1259;106505;-78
2024/01/03 01:47:37;;;;;;;12.40;7.60;;;;;;;5.49;88.40;98079.17;131103;1257;107526;-80
2024/01/03 01:50:45;;;;;;;12.10;7.10;;;;;;;5.46;88.61;98073.80;130946;1252;106786;-81
2024/01/03 01:53:51;;;;;;;12.10;7.10;;;;;;;5.45;88.79;98071.43;131146;1254;107623;-80
2024/01/03 01:56:57;;;;;;;12.50;7.50;;;;;;;5.50;88.83;98065.08;131129;1255;108670;-80
2024/01/03 02:00:04;;;;;;;13.30;7.90;;;;;;;5.56;88.68;98062.17;130880;1258;106469;-80
2024/01/03 02:03:18;;;;;;;12.40;8.10;;;;;;;5.60;88.63;98054.00;130898;1255;108738;-81
2024/01/03 02:06:24;;;;;;;13.90;8.60;;;;;;;5.60;88.66;98048.46;131110;1253;106560;-81
2024/01/03 02:09:30;;;;;;;11.80;7.90;;;;;;;5.61;88.74;98048.16;131129;1257;106662;-79
2024/01/03 02:12:37;;;;;;;11.20;7.70;;;;;;;5.59;88.69;98040.76;131134;1255;106655;-79
2024/01/03 02:15:43;;;;;;;12.30;7.40;;;;;;;5.57;88.59;98039.82;131112;1256;108818;-80
2024/01/03 02:18:49;;;;;;;9.50;6.50;;;;;;;5.52;88.76;98033.33;131127;1251;107575;-81
2024/01/03 02:21:56;;;;;;;11.90;7.10;;;;;;;5.50;88.87;98028.89;131262;1251;107683;-81
2024/01/03 02:25:04;;;;;;;10.30;7.00;;;;;;;5.55;88.71;98024.19;131217;1274;107507;-80
2024/01/03 02:28:11;;;;;;;9.60;6.80;;;;;;;5.55;88.64;98020.35;131202;1256;106707;-81
2024/01/03 02:31:17;;;;;;;11.30;7.10;;;;;;;5.52;88.93;98017.76;131185;1256;106939;-80
2024/01/03 02:34:23;;;;;;;10.30;7.00;;;;;;;5.52;88.96;98007.94;131234;1251;107657;-79
2024/01/03 02:37:28;;;;;;;11.40;6.60;;;;;;;5.52;88.93;98002.79;131143;1257;106951;-82
2024/01/03 02:40:34;;;;;;;9.10;6.00;;;;;;;5.51;88.94;98002.23;131155;1257;107704;-80
2024/01/03 02:43:39;;;;;;;10.10;7.00;;;;;;;5.51;88.95;97999.77;131178;1251;108300;-80
2024/01/03 02:46:45;;;;;;;10.80;7.50;;;;;;;5.55;89.09;97995.66;131197;1251;108677;-81
2024/01/03 02:49:54;;;;;;;10.10;6.80;;;;;;;5.57;89.25;97992.17;131260;1251;107935;-81
2024/01/03 02:53:00;;;;;;;11.60;7.90;;;;;;;5.60;88.93;97984.84;131207;1257;108706;-82
2024/01/03 02:56:06;;;;;;;10.30;6.90;;;;;;;5.59;88.78;97980.52;131199;1257;106304;-78
2024/01/03 02:59:12;;;;;;;12.50;6.60;;;;;;;5.57;88.88;97976.90;131189;1261;106742;-77
2024/01/03 03:02:18;;;;;;;8.20;5.90;;;;;;;5.55;89.16;97972.55;131174;1256;107885;-80
2024/01/03 03:05:23;;;;;;;10.20;6.50;;;;;;;5.55;88.98;97965.80;131030;1251;107729;-80
2024/01/03 03:08:29;;;;;;;10.80;6.40;;;;;;;5.57;89.10;97961.18;131141;1251;106812;-80
2024/01/03 03:11:34;;;;;;;11.10;6.90;;;;;;;5.55;89.02;97957.66;131218;1257;106363;-78
2024/01/03 03:14:40;;;;;;;9.20;6.80;;;;;;;5.55;89.05;97954.02;130944;1256;107727;-80
2024/01/03 03:17:46;;;;;;;9.30;6.70;;;;;;;5.54;89.14;97948.60;130975;1251;107842;-82
2024/01/03 03:20:51;;;;;;;9.70;6.20;;;;;;;5.52;89.14;97939.54;131208;1265;107243;-79
2024/01/03 03:23:57;;;;;;;10.80;6.50;;;;;;;5.48;89.41;97937.44;131161;1251;107660;-81
2024/01/03 03:27:02;;;;;;;10.50;6.20;;;;;;;5.48;89.14;97930.90;131225;1256;108611;-80
2024/01/03 03:30:10;;;;;;;9.60;6.30;;;;;;;5.53;89.35;97924.77;131220;1256;107595;-81
2024/01/03 03:33:15;;;;;;;10.20;6.60;;;;;;;5.57;89.24;97923.25;130938;1257;108986;-80
2024/01/03 03:36:21;;;;;;;9.70;6.60;;;;;;;5.58;89.36;97918.79;131141;1251;227161;-80
2024/01/03 03:39:26;;;;;;;11.20;7.70;;;;;;;5.56;89.02;97912.28;131257;1251;108383;-81
2024/01/03 03:42:32;;;;;;;9.40;6.80;;;;;;;5.54;89.25;97909.98;131127;1254;108607;-78
2024/01/03 03:45:38;;;;;;;8.60;5.70;;;;;;;5.48;89.55;97906.30;130902;1258;107313;-81
2024/01/03 03:48:43;;;;;;;8.50;5.60;;;;;;;5.47;89.46;97905.52;131141;1251;108520;-79
2024/01/03 03:51:49;;;;;;;8.70;6.00;;;;;;;5.49;89.26;97901.37;131141;1257;108733;-80
2024/01/03 03:54:54;;;;;;;8.20;5.80;;;;;;;5.54;89.50;97897.03;131198;1253;108779;-78
2024/01/03 03:58:00;;;;;;;8.00;5.80;;;;;;;5.57;89.67;97890.98;130944;1257;109109;-79
2024/01/03 04:01:09;;;;;;;8.60;6.40;;;;;;;5.60;89.29;97892.84;131014;1257;107037;-79
2024/01/03 04:04:14;;;;;;;8.80;6.20;;;;;;;5.62;89.37;97887.96;130990;1251;107505;-79
2024/01/03 04:07:20;;;;;;;10.40;6.30;;;;;;;5.57;89.46;97886.42;131053;1251;108564;-79
2024/01/03 04:10:25;;;;;;;8.80;5.90;;;;;;;5.54;89.83;97885.90;130973;1266;107723;-79
2024/01/03 04:13:31;;;;;;;8.50;5.60;;;;;;;5.54;89.60;97880.23;130926;1258;106666;-79
2024/01/03 04:16:38;;;;;;;7.90;5.50;;;;;;;5.56;89.69;97880.35;130964;1256;105609;-78
2024/01/03 04:19:43;;;;;;;7.40;5.50;;;;;;;5.59;89.52;97878.53;130986;1258;106970;-79
2024/01/03 04:22:49;;;;;;;8.70;6.10;;;;;;;5.63;89.69;97874.20;130924;1255;107588;-80
2024/01/03 04:25:55;;;;;;;10.70;7.30;;;;;;;5.66;89.52;97870.65;130965;1251;108842;-79
2024/01/03 04:29:00;;;;;;;9.00;6.20;;;;;;;5.69;89.86;97866.31;130960;1251;108819;-79
2024/01/03 04:32:07;;;;;;;9.90;7.70;;;;;;;5.68;89.55;97859.02;130979;1251;107587;-81
2024/01/03 04:35:13;;;;;;;7.60;5.60;;;;;;;5.65;89.71;97860.35;131217;1257;107668;-79
2024/01/03 04:38:18;;;;;;;8.70;5.80;;;;;;;5.63;89.89;97856.98;131007;1251;109013;-79
2024/01/03 04:41:24;;;;;;;9.20;5.90;;;;;;;5.64;89.92;97850.96;130965;1251;106811;-79
2024/01/03 04:44:30;;;;;;;8.90;6.50;;;;;;;5.67;89.67;97848.70;130968;1251;108804;-78
2024/01/03 04:47:35;;;;;;;8.90;6.20;;;;;;;5.73;90.02;97846.45;130970;1251;108493;-78
2024/01/03 04:50:41;;;;;;;10.90;6.90;;;;;;;5.74;89.36;97842.07;130997;1268;109031;-78
2024/01/03 04:53:47;;;;;;;12.60;7.30;;;;;;;5.75;89.70;97836.34;130984;1257;107791;-78
2024/01/03 04:56:53;;;;;;;12.10;7.10;;;;;;;5.77;89.46;97837.14;130968;1267;108066;-79
2024/01/03 04:59:58;;;;;;;10.20;6.20;;;;;;;5.74;89.98;97834.34;130955;1256;107508;-78
2024/01/03 05:03:04;;;;;;;10.90;6.90;;;;;;;5.72;89.54;97826.42;130945;1256;108592;-78
2024/01/03 05:06:10;;;;;;;11.20;7.40;;;;;;;5.72;89.77;97824.63;130990;1257;106258;-78
2024/01/03 05:09:16;;;;;;;11.60;7.90;;;;;;;5.76;89.93;97821.42;130955;1251;107342;-78
2024/01/03 05:12:21;;;;;;;10.30;6.90;;;;;;;5.80;90.11;97817.20;131016;1257;108091;-78
2024/01/03 05:15:27;;;;;;;9.00;6.20;;;;;;;5.80;89.98;97821.00;130988;1251;107519;-78
2024/01/03 05:18:32;;;;;;;9.20;6.70;;;;;;;5.81;89.78;97816.16;130965;1251;109322;-78
2024/01/03 05:21:38;;;;;;;10.50;7.30;;;;;;;5.80;89.88;97818.77;131022;1256;107941;-78
2024/01/03 05:24:44;;;;;;;9.50;6.40;;;;;;;5.78;90.19;97815.13;130954;1257;106833;-78
2024/01/03 05:27:49;;;;;;;10.20;6.60;;;;;;;5.75;90.18;97815.46;130929;1251;108406;-78
2024/01/03 05:30:55;;;;;;;9.70;6.50;;;;;;;5.76;90.32;97814.13;130973;1256;108638;-78
2024/01/03 05:34:01;;;;;;;9.70;6.70;;;;;;;5.80;90.02;97812.36;130945;1252;108577;-78
2024/01/03 05:37:07;;;;;;;10.10;6.90;;;;;;;5.84;90.38;97811.98;130989;1265;109068;-78
2024/01/03 05:40:15;;;;;;;11.80;8.60;;;;;;;5.86;90.06;97807.61;130948;1256;108741;-79
2024/01/03 05:43:21;;;;;;;11.70;7.40;;;;;;;5.87;90.13;97809.61;131005;1257;109407;-78
2024/01/03 05:46:26;;;;;;;10.50;7.40;;;;;;;5.85;90.22;97805.56;130989;1251;108435;-79
2024/01/03 05:49:33;;;;;;;9.90;7.30;;;;;;;5.83;90.23;97805.83;130935;1256;108839;-78
2024/01/03 05:52:39;;;;;;;11.00;7.30;;;;;;;5.82;90.34;97803.36;130993;1255;108650;-79
2024/01/03 05:55:45;;;;;;;10.40;7.30;;;;;;;5.86;90.49;97802.30;130957;1256;109480;-78
2024/01/03 05:58:51;;;;;;;9.30;7.10;;;;;;;5.91;90.15;97798.63;130964;1251;108703;-78
2024/01/03 06:01:57;;;;;;;10.10;7.20;;;;;;;5.95;90.27;97797.65;130928;1251;106837;-79
2024/01/03 06:05:03;;;;;;;12.90;8.80;;;;;;;5.99;90.42;97793.30;131024;1253;108671;-79
2024/01/03 06:08:09;;;;;;;10.80;8.10;;;;;;;5.98;90.19;97792.27;130981;1251;108745;-78
2024/01/03 06:11:14;;;;;;;21.00;13.30;;;;;;;5.98;90.55;97793.41;130948;1251;108641;-79
2024/01/03 06:14:20;;;;;;;20.00;11.50;;;;;;;5.95;90.44;97788.09;130938;1258;108453;-80
2024/01/03 06:17:25;;;;;;;31.20;17.50;;;;;;;5.93;90.30;97784.83;130926;1255;107085;-79
2024/01/03 06:20:31;;;;;;;34.50;17.70;;;;;;;5.93;90.39;97785.27;130981;1251;108696;-80
2024/01/03 06:23:37;;;;;;;31.00;18.20;;;;;;;5.98;90.46;97779.05;130933;1256;107748;-79
2024/01/03 06:26:42;;;;;;;23.20;15.20;;;;;;;6.03;90.81;97781.17;130944;1255;108580;-80
2024/01/03 06:29:48;;;;;;;19.00;12.70;;;;;;;6.04;90.47;97778.55;131163;1251;106497;-79
2024/01/03 06:32:54;;;;;;;19.30;13.10;;;;;;;6.04;90.56;97776.91;131158;1251;107710;-79
2024/01/03 06:36:01;;;;;;;17.20;11.60;;;;;;;6.03;90.26;97779.54;131205;1254;108673;-79
2024/01/03 06:39:07;;;;;;;70.40;41.50;;;;;;;6.00;90.59;97779.23;131252;1251;108378;-78
2024/01/03 06:42:13;;;;;;;30.80;19.00;;;;;;;5.98;90.81;97777.98;130947;1267;108718;-79
2024/01/03 06:45:18;;;;;;;21.00;14.10;;;;;;;5.98;91.00;97778.34;130947;1256;108497;-78
2024/01/03 06:48:24;;;;;;;18.90;12.50;;;;;;;5.99;90.63;97771.85;130978;1257;108611;-79
2024/01/03 06:51:29;;;;;;;31.30;22.90;;;;;;;6.03;90.67;97770.38;131038;1251;108755;-78
2024/01/03 06:54:37;;;;;;;17.00;12.00;;;;;;;6.07;90.87;97768.84;130938;1251;108500;-78
2024/01/03 06:57:43;;;;;;;20.40;13.80;;;;;;;6.08;90.65;97775.73;131215;1256;107626;-79
2024/01/03 07:00:49;;;;;;;24.70;17.30;;;;;;;6.09;90.74;97771.76;130982;1256;107418;-78
2024/01/03 07:03:56;;;;;;;22.30;15.00;;;;;;;6.08;90.71;97768.48;130937;1251;108527;-78
2024/01/03 07:07:02;;;;;;;28.40;19.30;;;;;;;6.07;90.61;97766.52;131017;1256;107831;-78
2024/01/03 07:10:09;;;;;;;25.20;17.60;;;;;;;6.05;91.18;97764.06;130952;1256;108559;-78
2024/01/03 07:13:15;;;;;;;18.10;12.70;;;;;;;6.08;90.83;97761.73;130994;1251;107163;-79
2024/01/03 07:16:20;;;;;;;16.90;12.10;;;;;;;6.10;91.03;97762.45;130993;1256;107870;-78
2024/01/03 07:19:26;;;;;;;19.00;11.00;;;;;;;6.13;91.14;97763.99;130964;1256;106956;-79
2024/01/03 07:22:32;;;;;;;23.90;12.20;;;;;;;6.14;90.65;97762.63;131050;1255;109482;-78
2024/01/03 07:25:37;;;;;;;13.60;8.50;;;;;;;6.15;91.11;97767.27;130924;1255;107729;-78
2024/01/03 07:28:43;;;;;;;26.90;13.80;;;;;;;6.18;90.97;97765.58;130964;1251;108804;-80
2024/01/03 07:31:48;;;;;;;51.80;22.50;;;;;;;6.20;91.03;97770.95;130949;1253;108707;-79
2024/01/03 07:34:54;;;;;;;18.30;11.10;;;;;;;6.25;91.18;97767.70;130969;1255;108296;-78
2024/01/03 07:38:00;;;;;;;15.40;10.00;;;;;;;6.30;91.34;97761.20;131172;1256;107679;-80
2024/01/03 07:41:05;;;;;;;16.10;11.20;;;;;;;6.35;90.97;97758.17;130983;1256;108632;-77
2024/01/03 07:44:11;;;;;;;36.50;23.70;;;;;;;6.36;91.06;97762.33;130975;1256;108404;-78
2024/01/03 07:47:17;;;;;;;19.10;12.30;;;;;;;6.37;91.08;97763.39;130978;1253;107761;-77
2024/01/03 07:50:22;;;;;;;29.90;16.70;;;;;;;6.39;91.54;97761.95;131049;1253;108608;-78
2024/01/03 07:53:28;;;;;;;52.50;24.90;;;;;;;6.39;91.16;97752.05;130961;1254;107122;-78
2024/01/03 07:56:34;;;;;;;32.10;17.50;;;;;;;6.41;91.30;97753.61;130978;1256;107601;-78
2024/01/03 07:59:42;;;;;;;45.80;23.40;;;;;;;6.46;91.69;97750.98;131015;1256;107769;-78
2024/01/03 08:02:48;;;;;;;167.10;79.10;;;;;;;6.51;91.69;97749.68;130988;1256;108856;-77
2024/01/03 08:05:55;;;;;;;49.70;28.00;;;;;;;6.57;91.70;97749.70;131048;1251;106650;-78
2024/01/03 08:09:00;;;;;;;31.00;17.10;;;;;;;6.58;91.50;97753.90;131032;1251;106396;-77
2024/01/03 08:12:08;;;;;;;24.50;16.20;;;;;;;6.58;91.49;97753.05;131003;1256;108266;-78
2024/01/03 08:15:14;;;;;;;36.80;24.80;;;;;;;6.57;91.72;97746.23;130956;1256;107162;-78
2024/01/03 08:18:20;;;;;;;16.60;11.80;;;;;;;6.61;92.01;97749.38;130979;1251;108600;-77
2024/01/03 08:21:25;;;;;;;22.90;14.80;;;;;;;6.67;91.98;97750.12;131030;1256;106488;-77
2024/01/03 08:24:31;;;;;;;17.70;12.10;;;;;;;6.76;92.10;97746.33;130968;1251;107806;-79
2024/01/03 08:27:38;;;;;;;15.90;10.60;;;;;;;6.81;91.82;97747.80;130960;1251;106221;-81
2024/01/03 08:30:43;;;;;;;37.00;22.30;;;;;;;6.82;92.09;97747.61;131193;1256;107634;-77
2024/01/03 08:33:49;;;;;;;21.40;13.60;;;;;;;6.82;92.07;97750.63;131213;1256;108554;-80
2024/01/03 08:36:54;;;;;;;23.90;15.20;;;;;;;6.83;92.05;97745.73;131166;1255;107430;-82
2024/01/03 08:40:00;;;;;;;15.90;11.00;;;;;;;6.86;92.24;97750.38;131238;1256;107544;-82
2024/01/03 08:43:06;;;;;;;15.80;10.60;;;;;;;6.89;92.15;97746.16;131245;1255;109098;-81
2024/01/03 08:46:12;;;;;;;25.30;15.70;;;;;;;6.96;92.47;97744.70;131196;1251;107798;-79
2024/01/03 08:49:18;;;;;;;139.70;57.20;;;;;;;7.04;92.53;97744.77;131185;1256;107675;-80
2024/01/03 08:52:23;;;;;;;45.70;21.40;;;;;;;7.11;92.54;97742.66;131285;1251;108538;-80
2024/01/03 08:55:29;;;;;;;121.60;42.60;;;;;;;7.17;92.63;97745.93;131174;1256;108500;-80
2024/01/03 08:58:34;;;;;;;39.70;18.20;;;;;;;7.26;92.65;97742.52;131191;1256;106403;-80
2024/01/03 09:01:40;;;;;;;329.80;117.10;;;;;;;7.37;92.65;97737.24;131193;1256;107605;-81
2024/01/03 09:04:46;;;;;;;293.80;103.00;;;;;;;7.49;92.78;97742.55;131121;1252;107654;-80
2024/01/03 09:07:51;;;;;;;74.20;29.20;;;;;;;7.64;92.90;97737.84;131249;1256;108607;-80
2024/01/03 09:10:57;;;;;;;96.40;37.00;;;;;;;7.77;92.61;97735.09;131215;1264;106325;-80
2024/01/03 09:14:02;;;;;;;132.40;48.70;;;;;;;7.89;93.12;97733.73;131313;1251;106710;-81
2024/01/03 09:17:08;;;;;;;378.40;120.40;;;;;;;8.04;93.09;97742.52;131263;1251;107643;-80
2024/01/03 09:20:16;;;;;;;333.90;109.90;;;;;;;8.19;92.98;97739.99;131213;1251;108655;-80
2024/01/03 09:23:22;;;;;;;861.40;370.40;;;;;;;8.33;93.31;97744.04;131241;1256;107653;-81
2024/01/03 09:26:28;;;;;;;552.40;221.50;;;;;;;8.45;93.34;97742.67;131184;1266;108517;-81
2024/01/03 09:29:33;;;;;;;406.20;143.00;;;;;;;8.60;93.41;97746.39;131228;1251;107956;-81
2024/01/03 09:32:41;;;;;;;253.20;88.10;;;;;;;8.75;93.65;97741.71;131199;1256;108618;-81
2024/01/03 09:35:47;;;;;;;404.30;160.00;;;;;;;8.89;93.63;97742.36;131235;1253;109265;-81
2024/01/03 09:38:52;;;;;;;142.20;51.50;;;;;;;9.01;93.41;97744.98;131236;1256;108488;-82
2024/01/03 09:41:58;;;;;;;185.90;63.10;;;;;;;9.14;93.60;97744.44;131140;1256;107709;-82
2024/01/03 09:45:05;;;;;;;154.60;51.60;;;;;;;9.23;93.42;97744.40;131214;1269;108761;-83
2024/01/03 09:48:11;;;;;;;345.70;134.20;;;;;;;9.33;93.16;97741.86;131178;1251;107621;-83
2024/01/03 09:51:16;;;;;;;409.60;173.20;;;;;;;9.38;93.21;97741.73;131222;1251;107581;-82
2024/01/03 09:54:22;;;;;;;276.80;118.00;;;;;;;9.39;92.85;97742.38;131201;1256;108458;-82
2024/01/03 09:57:29;;;;;;;88.00;39.40;;;;;;;9.42;93.10;97748.16;131180;1252;106070;-80
2024/01/03 10:00:35;;;;;;;142.80;66.50;;;;;;;9.41;93.11;97748.92;131223;1251;108766;-80
2024/01/03 10:03:41;;;;;;;149.20;77.90;;;;;;;9.41;93.12;97748.39;131306;1255;106338;-81
2024/01/03 10:06:57;;;;;;;75.50;43.10;;;;;;;9.47;93.25;97748.42;131271;1251;108525;-81
2024/01/03 10:10:05;;;;;;;24.50;13.60;;;;;;;9.57;93.36;97749.80;131194;1253;108793;-81
2024/01/03 10:13:19;;;;;;;12.00;7.00;;;;;;;9.59;93.24;97755.90;131196;1253;108447;-80
2024/01/03 10:16:30;;;;;;;15.80;9.10;;;;;;;9.58;93.11;97757.11;131233;1255;108579;-81
2024/01/03 10:19:35;;;;;;;6.00;3.90;;;;;;;9.57;92.43;97760.11;131288;1251;107545;-81
2024/01/03 10:22:41;;;;;;;8.40;5.10;;;;;;;9.53;93.01;97765.21;131237;1255;106388;-81
2024/01/03 10:25:47;;;;;;;6.10;3.90;;;;;;;9.54;93.03;97768.48;131231;1251;108342;-81
2024/01/03 10:29:08;;;;;;;5.80;4.00;;;;;;;9.55;92.97;97767.41;131204;1256;107790;-81
2024/01/03 10:32:17;;;;;;;6.00;4.80;;;;;;;9.53;92.98;97769.02;131178;1251;105563;-81
2024/01/03 10:35:26;;;;;;;4.10;2.90;;;;;;;9.53;93.19;97769.45;131174;1256;106216;-81
2024/01/03 10:38:33;;;;;;;59.70;25.50;;;;;;;9.60;93.38;97771.50;131251;1256;108696;-81
2024/01/03 10:41:42;;;;;;;80.30;28.60;;;;;;;9.72;93.20;97767.62;131239;1256;108984;-82
2024/01/03 10:44:47;;;;;;;410.10;142.40;;;;;;;9.78;92.91;97762.67;131210;1256;105747;-81
2024/01/03 10:47:54;;;;;;;176.80;59.40;;;;;;;9.78;92.88;97761.90;131309;1256;108376;-81
2024/01/03 10:51:01;;;;;;;550.20;216.20;;;;;;;9.77;92.85;97763.71;131325;1256;108726;-81
2024/01/03 10:54:11;;;;;;;208.70;69.20;;;;;;;9.79;93.20;97762.67;131133;1251;106919;-81
2024/01/03 10:57:20;;;;;;;532.80;195.20;;;;;;;9.75;92.94;97758.71;131241;1251;107415;-81
2024/01/03 11:00:41;;;;;;;476.00;166.20;;;;;;;9.75;92.91;97759.87;131149;1251;107505;-81
2024/01/03 11:03:54;;;;;;;469.50;159.70;;;;;;;9.80;92.71;97759.40;131273;1251;107523;-81
2024/01/03 11:07:09;;;;;;;895.40;378.70;;;;;;;9.84;92.84;97763.12;131263;1255;108766;-81
2024/01/03 11:10:51;;;;;;;332.30;106.90;;;;;;;9.88;92.62;97761.10;131212;1256;106364;-81
2024/01/03 11:13:57;;;;;;;337.00;124.60;;;;;;;9.90;92.06;97761.13;131229;1251;107000;-82
2024/01/03 11:17:03;;;;;;;59.60;26.70;;;;;;;9.87;92.05;97760.70;131145;1254;108390;-82
2024/01/03 11:20:12;;;;;;;166.70;78.90;;;;;;;9.86;91.82;97763.65;131179;1255;107136;-82
2024/01/03 11:23:33;;;;;;;129.20;64.80;;;;;;;9.92;92.12;97759.83;131233;1255;107712;-82
2024/01/03 11:27:04;;;;;;;52.90;28.60;;;;;;;9.99;91.97;97760.95;131184;1253;108626;-82
2024/01/03 11:30:43;;;;;;;75.90;42.70;;;;;;;10.05;91.45;97764.40;131151;1253;107656;-81
2024/01/03 11:33:48;;;;;;;33.90;19.60;;;;;;;10.03;91.03;97761.99;131216;1256;108606;-80
2024/01/03 11:36:54;;;;;;;37.10;25.50;;;;;;;9.99;90.97;97763.45;131299;1254;108625;-81
2024/01/03 11:40:00;;;;;;;22.50;15.20;;;;;;;9.94;90.41;97765.98;131225;1254;107713;-81
2024/01/03 11:43:06;;;;;;;18.70;11.50;;;;;;;9.90;90.65;97765.69;131242;1253;107834;-81
2024/01/03 11:46:13;;;;;;;32.40;16.10;;;;;;;9.93;91.07;97762.85;131216;1256;108445;-81
2024/01/03 11:49:22;;;;;;;67.30;30.60;;;;;;;9.94;90.67;97764.60;131165;1254;106967;-81
2024/01/03 11:52:28;;;;;;;137.80;59.10;;;;;;;10.00;90.44;97761.72;131250;1255;107712;-81
2024/01/03 11:55:34;;;;;;;23.30;10.30;;;;;;;10.07;89.94;97766.12;131222;1256;106634;-81
2024/01/03 11:58:39;;;;;;;155.30;62.60;;;;;;;10.01;89.41;97765.11;131189;1258;106368;-81
2024/01/03 12:01:58;;;;;;;17.30;7.50;;;;;;;10.05;90.27;97769.03;131214;1256;105613;-81
2024/01/03 12:05:05;;;;;;;65.50;25.60;;;;;;;10.03;89.69;97767.52;131222;1253;108445;-81
2024/01/03 12:08:13;;;;;;;56.20;26.60;;;;;;;10.04;89.17;97771.83;131244;1251;106639;-81
2024/01/03 12:11:19;;;;;;;104.90;46.70;;;;;;;10.08;89.43;97766.40;131283;1251;109335;-81
2024/01/03 12:14:24;;;;;;;100.90;47.90;;;;;;;10.11;89.64;97770.15;131274;1256;108549;-81
2024/01/03 12:17:32;;;;;;;64.80;31.20;;;;;;;10.12;89.72;97766.48;131214;1253;106781;-81
2024/01/03 12:20:37;;;;;;;84.20;40.60;;;;;;;10.08;89.48;97769.85;131221;1256;108475;-81
2024/01/03 12:23:56;;;;;;;59.50;30.00;;;;;;;10.04;89.45;97771.55;131289;1253;107611;-81
2024/01/03 12:27:02;;;;;;;48.20;23.00;;;;;;;10.02;89.03;97771.67;131255;1255;107628;-81
2024/01/03 12:30:21;;;;;;;61.90;29.10;;;;;;;10.01;89.25;97779.05;131193;1251;107577;-81
2024/01/03 12:33:27;;;;;;;81.80;39.10;;;;;;;10.00;88.78;97775.58;131274;1251;108692;-81
2024/01/03 12:36:33;;;;;;;37.60;17.40;;;;;;;9.96;89.07;97780.67;131282;1254;107674;-81
2024/01/03 12:39:39;;;;;;;52.80;27.10;;;;;;;9.93;88.90;97778.63;131235;1251;107663;-81
2024/01/03 12:42:46;;;;;;;47.10;25.10;;;;;;;9.87;88.92;97784.09;131268;1256;106651;-81
2024/01/03 12:45:52;;;;;;;58.70;30.60;;;;;;;9.79;89.02;97785.10;131285;1256;106944;-81
2024/01/03 12:48:59;;;;;;;45.40;24.10;;;;;;;9.79;89.07;97793.41;131134;1255;107768;-81
2024/01/03 12:52:05;;;;;;;31.00;16.70;;;;;;;9.81;89.14;97790.88;131241;1254;106253;-81
2024/01/03 12:55:11;;;;;;;80.40;43.70;;;;;;;9.82;89.04;97792.52;131142;1251;109026;-81
2024/01/03 12:58:17;;;;;;;28.10;14.50;;;;;;;9.82;88.68;97792.51;131177;1256;108525;-81
2024/01/03 13:01:27;;;;;;;46.90;26.50;;;;;;;9.77;88.28;97789.81;131208;1255;108394;-81
2024/01/03 13:04:34;;;;;;;57.30;28.80;;;;;;;9.72;88.82;97792.61;131193;1255;107117;-81
2024/01/03 13:07:39;;;;;;;50.90;28.00;;;;;;;9.70;88.42;97796.27;131241;1256;109071;-81
2024/01/03 13:10:45;;;;;;;55.80;30.80;;;;;;;9.73;88.54;97797.27;131272;1254;107520;-81
2024/01/03 13:13:51;;;;;;;55.20;29.50;;;;;;;9.77;88.49;97803.86;131187;1256;107676;-80
2024/01/03 13:16:59;;;;;;;14.00;7.10;;;;;;;9.80;88.35;97807.50;131191;1255;107800;-81
2024/01/03 13:20:06;;;;;;;22.80;12.00;;;;;;;9.76;88.36;97807.83;131228;1255;106274;-80
2024/01/03 13:23:14;;;;;;;27.20;15.40;;;;;;;9.72;88.57;97808.55;131323;1252;108406;-81
2024/01/03 13:26:20;;;;;;;27.60;14.90;;;;;;;9.71;88.59;97819.90;131452;1251;109268;-81
2024/01/03 13:29:25;;;;;;;83.70;39.20;;;;;;;9.69;88.32;97819.05;131220;1252;108100;-81
2024/01/03 13:32:31;;;;;;;63.40;25.00;;;;;;;9.72;88.70;97821.58;131288;1251;108281;-81
2024/01/03 13:35:37;;;;;;;33.10;13.50;;;;;;;9.70;88.53;97823.25;131306;1253;106261;-81
2024/01/03 13:38:42;;;;;;;20.60;10.10;;;;;;;9.65;88.71;97824.98;131329;1253;107932;-81
2024/01/03 13:41:48;;;;;;;10.80;6.00;;;;;;;9.59;88.56;97827.08;131250;1255;106881;-81
2024/01/03 13:44:54;;;;;;;12.40;7.90;;;;;;;9.54;88.90;97835.60;131240;1254;108742;-80
2024/01/03 13:48:00;;;;;;;21.10;12.50;;;;;;;9.49;88.78;97835.11;131272;1251;107642;-81
2024/01/03 13:51:06;;;;;;;14.50;8.10;;;;;;;9.49;89.40;97842.28;131408;1253;106375;-82
2024/01/03 13:54:11;;;;;;;120.00;45.10;;;;;;;9.49;89.29;97838.52;131350;1253;108780;-82
2024/01/03 13:57:19;;;;;;;60.70;25.00;;;;;;;9.51;89.22;97836.27;131199;1254;107507;-83
2024/01/03 14:00:25;;;;;;;217.00;87.90;;;;;;;9.52;89.47;97839.17;131312;1251;107637;-82
2024/01/03 14:03:31;;;;;;;391.40;167.30;;;;;;;9.53;89.04;97834.42;131535;1255;106570;-80
2024/01/03 14:06:41;;;;;;;276.90;103.70;;;;;;;9.52;89.65;97833.88;131517;1256;108840;-83
2024/01/03 14:09:46;;;;;;;640.00;262.90;;;;;;;9.48;89.55;97841.30;131198;1256;108456;-80
2024/01/03 14:12:52;;;;;;;545.30;199.60;;;;;;;9.45;89.50;97843.45;131190;1253;108591;-80